Terminal Aerodrome Forecast
Issued by NWS

Home | Current Version | Previous Version | Text Only | Print | Product List | Glossary On
Versions: 1 2 3 4 5 6 7 8 9 10 11 12 13 14 15 16 17 18 19 20 21 22 23 24 25
000
FTAK31 PANC 061222 AAA
TAFAVD
TAF AMD
PAVD 061222Z 0612/0712 VRB05KT P6SM BKN040 OVC050
      TEMPO 0612/0615 FEW050 SCT100
     FM061500 VRB02KT P6SM SCT120
     FM070100 25005KT P6SM BKN060 BKN120
     FM070700 08005KT P6SM -SHRA SCT040 OVC050
      AMD LTD TO CLD VIS AND WIND=

USA.gov is the U.S. government's official web portal to all federal, state and local government web resources and services.